sensor_id;sensor_type;location;lat;lon;timestamp;P1;durP1;ratioP1;P2;durP2;ratioP2
5690;SDS011;2870;42.680;23.364;2023-07-20T00:01:26;8.87;;;3.53;;
5690;SDS011;2870;42.680;23.364;2023-07-20T00:03:53;12.93;;;3.70;;
5690;SDS011;2870;42.680;23.364;2023-07-20T00:06:21;14.30;;;3.80;;
5690;SDS011;2870;42.680;23.364;2023-07-20T00:08:49;11.20;;;3.20;;
5690;SDS011;2870;42.680;23.364;2023-07-20T00:11:17;15.40;;;4.20;;
5690;SDS011;2870;42.680;23.364;2023-07-20T00:13:44;13.80;;;4.17;;
5690;SDS011;2870;42.680;23.364;2023-07-20T00:16:11;9.73;;;4.17;;
5690;SDS011;2870;42.680;23.364;2023-07-20T00:18:37;8.10;;;3.90;;
5690;SDS011;2870;42.680;23.364;2023-07-20T00:21:04;11.70;;;3.67;;
5690;SDS011;2870;42.680;23.364;2023-07-20T00:23:31;8.30;;;3.60;;
5690;SDS011;2870;42.680;23.364;2023-07-20T00:25:58;14.30;;;3.27;;
5690;SDS011;2870;42.680;23.364;2023-07-20T00:28:26;9.57;;;3.37;;
5690;SDS011;2870;42.680;23.364;2023-07-20T00:30:52;9.83;;;3.50;;
5690;SDS011;2870;42.680;23.364;2023-07-20T00:33:19;10.57;;;4.03;;
5690;SDS011;2870;42.680;23.364;2023-07-20T00:35:46;13.57;;;4.07;;
5690;SDS011;2870;42.680;23.364;2023-07-20T00:38:13;13.30;;;4.50;;
5690;SDS011;2870;42.680;23.364;2023-07-20T00:40:40;14.13;;;4.27;;
5690;SDS011;2870;42.680;23.364;2023-07-20T00:43:07;14.40;;;4.40;;
5690;SDS011;2870;42.680;23.364;2023-07-20T00:45:36;11.67;;;3.93;;
5690;SDS011;2870;42.680;23.364;2023-07-20T00:48:02;9.17;;;3.80;;
5690;SDS011;2870;42.680;23.364;2023-07-20T00:50:31;9.57;;;4.23;;
5690;SDS011;2870;42.680;23.364;2023-07-20T00:52:58;12.60;;;4.47;;
5690;SDS011;2870;42.680;23.364;2023-07-20T00:55:26;14.83;;;3.50;;
5690;SDS011;2870;42.680;23.364;2023-07-20T00:57:53;9.10;;;3.80;;
5690;SDS011;2870;42.680;23.364;2023-07-20T01:00:20;11.27;;;4.00;;
5690;SDS011;2870;42.680;23.364;2023-07-20T01:02:48;20.00;;;4.00;;
5690;SDS011;2870;42.680;23.364;2023-07-20T01:05:15;15.67;;;4.10;;
5690;SDS011;2870;42.680;23.364;2023-07-20T01:07:43;16.43;;;4.10;;
5690;SDS011;2870;42.680;23.364;2023-07-20T01:10:18;17.43;;;4.07;;
5690;SDS011;2870;42.680;23.364;2023-07-20T01:12:47;15.10;;;4.83;;
5690;SDS011;2870;42.680;23.364;2023-07-20T01:15:16;8.63;;;3.77;;
5690;SDS011;2870;42.680;23.364;2023-07-20T01:17:42;12.20;;;4.40;;
5690;SDS011;2870;42.680;23.364;2023-07-20T01:20:12;12.30;;;4.40;;
5690;SDS011;2870;42.680;23.364;2023-07-20T01:26:01;9.90;;;4.00;;
5690;SDS011;2870;42.680;23.364;2023-07-20T01:28:37;13.07;;;4.50;;
5690;SDS011;2870;42.680;23.364;2023-07-20T01:31:24;18.40;;;4.07;;
5690;SDS011;2870;42.680;23.364;2023-07-20T01:33:52;11.80;;;3.60;;
5690;SDS011;2870;42.680;23.364;2023-07-20T01:36:22;12.13;;;4.17;;
5690;SDS011;2870;42.680;23.364;2023-07-20T01:38:52;11.93;;;4.00;;
5690;SDS011;2870;42.680;23.364;2023-07-20T01:41:19;15.00;;;3.73;;
5690;SDS011;2870;42.680;23.364;2023-07-20T01:43:47;16.57;;;4.60;;
5690;SDS011;2870;42.680;23.364;2023-07-20T01:46:13;10.40;;;3.77;;
5690;SDS011;2870;42.680;23.364;2023-07-20T01:48:41;11.97;;;3.63;;
5690;SDS011;2870;42.680;23.364;2023-07-20T01:51:08;10.60;;;4.30;;
5690;SDS011;2870;42.680;23.364;2023-07-20T01:53:37;12.13;;;4.27;;
5690;SDS011;2870;42.680;23.364;2023-07-20T01:56:04;12.23;;;4.30;;
5690;SDS011;2870;42.680;23.364;2023-07-20T01:58:31;12.57;;;4.00;;
5690;SDS011;2870;42.680;23.364;2023-07-20T02:03:32;11.20;;;4.33;;
5690;SDS011;2870;42.680;23.364;2023-07-20T02:06:00;13.50;;;5.07;;
5690;SDS011;2870;42.680;23.364;2023-07-20T02:08:27;12.30;;;5.33;;
5690;SDS011;2870;42.680;23.364;2023-07-20T02:10:54;8.20;;;4.27;;
5690;SDS011;2870;42.680;23.364;2023-07-20T02:13:21;15.67;;;4.23;;
5690;SDS011;2870;42.680;23.364;2023-07-20T02:15:47;9.60;;;4.67;;
5690;SDS011;2870;42.680;23.364;2023-07-20T02:18:16;10.17;;;4.47;;
5690;SDS011;2870;42.680;23.364;2023-07-20T02:20:42;21.07;;;4.23;;
5690;SDS011;2870;42.680;23.364;2023-07-20T02:23:11;21.60;;;5.20;;
5690;SDS011;2870;42.680;23.364;2023-07-20T02:25:38;14.03;;;4.53;;
5690;SDS011;2870;42.680;23.364;2023-07-20T02:28:05;20.83;;;4.10;;
5690;SDS011;2870;42.680;23.364;2023-07-20T02:30:33;18.00;;;5.03;;
5690;SDS011;2870;42.680;23.364;2023-07-20T02:33:00;8.77;;;4.07;;
5690;SDS011;2870;42.680;23.364;2023-07-20T02:35:27;10.33;;;3.90;;
5690;SDS011;2870;42.680;23.364;2023-07-20T02:37:54;11.00;;;4.70;;
5690;SDS011;2870;42.680;23.364;2023-07-20T02:40:22;11.47;;;4.20;;
5690;SDS011;2870;42.680;23.364;2023-07-20T02:42:49;11.87;;;4.17;;
5690;SDS011;2870;42.680;23.364;2023-07-20T02:45:16;13.80;;;4.20;;
5690;SDS011;2870;42.680;23.364;2023-07-20T02:47:42;10.53;;;4.10;;
5690;SDS011;2870;42.680;23.364;2023-07-20T02:50:09;11.63;;;4.30;;
5690;SDS011;2870;42.680;23.364;2023-07-20T02:52:38;13.80;;;4.57;;
5690;SDS011;2870;42.680;23.364;2023-07-20T02:55:05;13.67;;;4.63;;
5690;SDS011;2870;42.680;23.364;2023-07-20T02:57:34;14.00;;;4.70;;
5690;SDS011;2870;42.680;23.364;2023-07-20T03:00:01;15.70;;;6.00;;
5690;SDS011;2870;42.680;23.364;2023-07-20T03:02:30;9.40;;;4.00;;
5690;SDS011;2870;42.680;23.364;2023-07-20T03:04:57;16.43;;;4.80;;
5690;SDS011;2870;42.680;23.364;2023-07-20T03:07:26;18.90;;;4.50;;
5690;SDS011;2870;42.680;23.364;2023-07-20T03:09:54;11.27;;;4.47;;
5690;SDS011;2870;42.680;23.364;2023-07-20T03:12:21;10.70;;;4.97;;
5690;SDS011;2870;42.680;23.364;2023-07-20T03:14:50;15.27;;;4.53;;
5690;SDS011;2870;42.680;23.364;2023-07-20T03:17:19;12.20;;;4.17;;
5690;SDS011;2870;42.680;23.364;2023-07-20T03:19:46;8.90;;;4.40;;
5690;SDS011;2870;42.680;23.364;2023-07-20T03:22:13;13.43;;;4.37;;
5690;SDS011;2870;42.680;23.364;2023-07-20T03:24:39;13.57;;;4.93;;
5690;SDS011;2870;42.680;23.364;2023-07-20T03:27:06;9.40;;;4.40;;
5690;SDS011;2870;42.680;23.364;2023-07-20T03:29:33;14.30;;;5.30;;
5690;SDS011;2870;42.680;23.364;2023-07-20T03:32:01;11.30;;;5.47;;
5690;SDS011;2870;42.680;23.364;2023-07-20T03:34:28;12.10;;;5.17;;
5690;SDS011;2870;42.680;23.364;2023-07-20T03:36:55;17.40;;;5.17;;
5690;SDS011;2870;42.680;23.364;2023-07-20T03:39:22;14.97;;;6.30;;
5690;SDS011;2870;42.680;23.364;2023-07-20T03:41:49;12.63;;;5.50;;
5690;SDS011;2870;42.680;23.364;2023-07-20T03:44:16;15.10;;;5.40;;
5690;SDS011;2870;42.680;23.364;2023-07-20T03:46:43;13.07;;;4.90;;
5690;SDS011;2870;42.680;23.364;2023-07-20T03:49:11;16.80;;;5.47;;
5690;SDS011;2870;42.680;23.364;2023-07-20T03:51:38;11.63;;;4.70;;
5690;SDS011;2870;42.680;23.364;2023-07-20T03:54:05;13.23;;;5.67;;
5690;SDS011;2870;42.680;23.364;2023-07-20T03:56:33;24.30;;;5.80;;
5690;SDS011;2870;42.680;23.364;2023-07-20T03:59:00;15.37;;;5.30;;
5690;SDS011;2870;42.680;23.364;2023-07-20T04:01:27;15.63;;;5.00;;
5690;SDS011;2870;42.680;23.364;2023-07-20T04:03:54;10.90;;;5.00;;
5690;SDS011;2870;42.680;23.364;2023-07-20T04:06:22;13.53;;;5.00;;
5690;SDS011;2870;42.680;23.364;2023-07-20T04:08:49;25.70;;;5.87;;
5690;SDS011;2870;42.680;23.364;2023-07-20T04:11:16;20.40;;;5.07;;
5690;SDS011;2870;42.680;23.364;2023-07-20T04:13:43;19.83;;;5.70;;
5690;SDS011;2870;42.680;23.364;2023-07-20T04:16:09;18.10;;;5.00;;
5690;SDS011;2870;42.680;23.364;2023-07-20T04:18:36;16.10;;;5.77;;
5690;SDS011;2870;42.680;23.364;2023-07-20T04:21:03;17.53;;;5.67;;
5690;SDS011;2870;42.680;23.364;2023-07-20T04:23:31;12.37;;;5.60;;
5690;SDS011;2870;42.680;23.364;2023-07-20T04:25:58;12.20;;;5.50;;
5690;SDS011;2870;42.680;23.364;2023-07-20T04:28:25;10.80;;;5.77;;
5690;SDS011;2870;42.680;23.364;2023-07-20T04:30:52;15.00;;;7.70;;
5690;SDS011;2870;42.680;23.364;2023-07-20T04:33:19;15.20;;;5.20;;
5690;SDS011;2870;42.680;23.364;2023-07-20T04:35:49;10.40;;;5.70;;
5690;SDS011;2870;42.680;23.364;2023-07-20T04:38:17;11.00;;;5.60;;
5690;SDS011;2870;42.680;23.364;2023-07-20T04:40:46;16.53;;;5.97;;
5690;SDS011;2870;42.680;23.364;2023-07-20T04:43:14;19.60;;;6.53;;
5690;SDS011;2870;42.680;23.364;2023-07-20T04:45:41;19.20;;;6.97;;
5690;SDS011;2870;42.680;23.364;2023-07-20T04:48:09;21.50;;;6.50;;
5690;SDS011;2870;42.680;23.364;2023-07-20T04:50:37;15.37;;;7.37;;
5690;SDS011;2870;42.680;23.364;2023-07-20T04:53:04;14.90;;;6.00;;
5690;SDS011;2870;42.680;23.364;2023-07-20T04:55:30;15.47;;;5.90;;
5690;SDS011;2870;42.680;23.364;2023-07-20T04:58:00;13.03;;;5.40;;
5690;SDS011;2870;42.680;23.364;2023-07-20T05:00:27;15.73;;;5.80;;
5690;SDS011;2870;42.680;23.364;2023-07-20T05:02:54;10.80;;;4.97;;
5690;SDS011;2870;42.680;23.364;2023-07-20T05:05:22;20.40;;;5.40;;
5690;SDS011;2870;42.680;23.364;2023-07-20T05:07:49;12.10;;;6.10;;
5690;SDS011;2870;42.680;23.364;2023-07-20T05:10:17;13.30;;;4.90;;
5690;SDS011;2870;42.680;23.364;2023-07-20T05:12:45;18.27;;;6.50;;
5690;SDS011;2870;42.680;23.364;2023-07-20T05:15:13;17.43;;;5.57;;
5690;SDS011;2870;42.680;23.364;2023-07-20T05:17:39;15.13;;;5.47;;
5690;SDS011;2870;42.680;23.364;2023-07-20T05:20:06;17.40;;;5.40;;
5690;SDS011;2870;42.680;23.364;2023-07-20T05:22:35;18.90;;;5.93;;
5690;SDS011;2870;42.680;23.364;2023-07-20T05:25:05;25.27;;;5.33;;
5690;SDS011;2870;42.680;23.364;2023-07-20T05:27:33;11.20;;;5.40;;
5690;SDS011;2870;42.680;23.364;2023-07-20T05:30:00;19.63;;;5.70;;
5690;SDS011;2870;42.680;23.364;2023-07-20T05:32:28;12.87;;;5.30;;
5690;SDS011;2870;42.680;23.364;2023-07-20T05:34:55;12.37;;;5.60;;
5690;SDS011;2870;42.680;23.364;2023-07-20T05:37:21;14.20;;;4.90;;
5690;SDS011;2870;42.680;23.364;2023-07-20T05:39:48;14.33;;;4.90;;
5690;SDS011;2870;42.680;23.364;2023-07-20T05:42:15;11.60;;;4.87;;
5690;SDS011;2870;42.680;23.364;2023-07-20T05:44:42;16.20;;;5.37;;
5690;SDS011;2870;42.680;23.364;2023-07-20T05:47:09;30.70;;;5.67;;
5690;SDS011;2870;42.680;23.364;2023-07-20T05:49:37;18.10;;;5.20;;
5690;SDS011;2870;42.680;23.364;2023-07-20T05:52:04;20.87;;;5.00;;
5690;SDS011;2870;42.680;23.364;2023-07-20T05:54:31;10.30;;;4.77;;
5690;SDS011;2870;42.680;23.364;2023-07-20T05:56:58;18.37;;;5.60;;
5690;SDS011;2870;42.680;23.364;2023-07-20T05:59:25;13.37;;;5.27;;
5690;SDS011;2870;42.680;23.364;2023-07-20T06:01:54;18.30;;;4.90;;
5690;SDS011;2870;42.680;23.364;2023-07-20T06:04:21;12.57;;;5.60;;
5690;SDS011;2870;42.680;23.364;2023-07-20T06:06:49;14.77;;;5.43;;
5690;SDS011;2870;42.680;23.364;2023-07-20T06:09:16;17.50;;;6.20;;
5690;SDS011;2870;42.680;23.364;2023-07-20T06:11:42;15.53;;;5.80;;
5690;SDS011;2870;42.680;23.364;2023-07-20T06:14:09;11.70;;;5.23;;
5690;SDS011;2870;42.680;23.364;2023-07-20T06:16:36;22.03;;;6.30;;
5690;SDS011;2870;42.680;23.364;2023-07-20T06:19:03;16.00;;;5.90;;
5690;SDS011;2870;42.680;23.364;2023-07-20T06:21:31;16.00;;;5.60;;
5690;SDS011;2870;42.680;23.364;2023-07-20T06:23:59;16.90;;;6.43;;
5690;SDS011;2870;42.680;23.364;2023-07-20T06:26:26;18.30;;;6.10;;
5690;SDS011;2870;42.680;23.364;2023-07-20T06:28:53;18.63;;;6.43;;
5690;SDS011;2870;42.680;23.364;2023-07-20T06:31:21;21.07;;;6.27;;
5690;SDS011;2870;42.680;23.364;2023-07-20T06:33:47;24.10;;;7.20;;
5690;SDS011;2870;42.680;23.364;2023-07-20T06:36:18;24.13;;;6.50;;
5690;SDS011;2870;42.680;23.364;2023-07-20T06:38:44;15.37;;;6.13;;
5690;SDS011;2870;42.680;23.364;2023-07-20T06:41:13;10.37;;;5.57;;
5690;SDS011;2870;42.680;23.364;2023-07-20T06:43:39;26.93;;;6.83;;
5690;SDS011;2870;42.680;23.364;2023-07-20T06:46:06;21.13;;;6.60;;
5690;SDS011;2870;42.680;23.364;2023-07-20T06:48:33;19.60;;;6.77;;
5690;SDS011;2870;42.680;23.364;2023-07-20T06:50:59;26.87;;;7.23;;
5690;SDS011;2870;42.680;23.364;2023-07-20T06:53:27;15.13;;;7.20;;
5690;SDS011;2870;42.680;23.364;2023-07-20T06:55:54;19.67;;;7.27;;
5690;SDS011;2870;42.680;23.364;2023-07-20T06:58:23;14.53;;;6.00;;
5690;SDS011;2870;42.680;23.364;2023-07-20T07:00:50;21.03;;;6.30;;
5690;SDS011;2870;42.680;23.364;2023-07-20T07:03:18;16.00;;;6.97;;
5690;SDS011;2870;42.680;23.364;2023-07-20T07:05:46;23.40;;;7.00;;
5690;SDS011;2870;42.680;23.364;2023-07-20T07:08:13;28.43;;;6.53;;
5690;SDS011;2870;42.680;23.364;2023-07-20T07:10:40;18.17;;;6.87;;
5690;SDS011;2870;42.680;23.364;2023-07-20T07:13:07;23.37;;;5.80;;
5690;SDS011;2870;42.680;23.364;2023-07-20T07:15:35;21.00;;;6.73;;
5690;SDS011;2870;42.680;23.364;2023-07-20T07:18:01;20.37;;;6.27;;
5690;SDS011;2870;42.680;23.364;2023-07-20T07:20:28;14.60;;;5.93;;
5690;SDS011;2870;42.680;23.364;2023-07-20T07:22:56;19.53;;;6.87;;
5690;SDS011;2870;42.680;23.364;2023-07-20T07:25:22;17.67;;;7.23;;
5690;SDS011;2870;42.680;23.364;2023-07-20T07:27:50;13.73;;;7.87;;
5690;SDS011;2870;42.680;23.364;2023-07-20T07:30:17;15.97;;;6.63;;
5690;SDS011;2870;42.680;23.364;2023-07-20T07:32:46;24.03;;;6.20;;
5690;SDS011;2870;42.680;23.364;2023-07-20T07:35:12;17.97;;;6.00;;
5690;SDS011;2870;42.680;23.364;2023-07-20T07:37:39;24.13;;;5.90;;
5690;SDS011;2870;42.680;23.364;2023-07-20T07:40:06;19.23;;;5.90;;
5690;SDS011;2870;42.680;23.364;2023-07-20T07:42:34;17.73;;;5.23;;
5690;SDS011;2870;42.680;23.364;2023-07-20T07:45:00;33.00;;;7.17;;
5690;SDS011;2870;42.680;23.364;2023-07-20T07:47:27;18.13;;;5.23;;
5690;SDS011;2870;42.680;23.364;2023-07-20T07:49:55;15.70;;;5.33;;
5690;SDS011;2870;42.680;23.364;2023-07-20T07:52:22;22.37;;;6.30;;
5690;SDS011;2870;42.680;23.364;2023-07-20T07:54:49;18.57;;;5.10;;
5690;SDS011;2870;42.680;23.364;2023-07-20T07:57:16;13.47;;;5.53;;
5690;SDS011;2870;42.680;23.364;2023-07-20T07:59:42;17.07;;;5.47;;
5690;SDS011;2870;42.680;23.364;2023-07-20T08:02:09;19.30;;;5.40;;
5690;SDS011;2870;42.680;23.364;2023-07-20T08:04:36;14.20;;;5.50;;
5690;SDS011;2870;42.680;23.364;2023-07-20T08:07:05;13.03;;;5.13;;
5690;SDS011;2870;42.680;23.364;2023-07-20T08:09:32;14.00;;;5.77;;
5690;SDS011;2870;42.680;23.364;2023-07-20T08:11:59;19.30;;;6.50;;
5690;SDS011;2870;42.680;23.364;2023-07-20T08:14:25;18.10;;;5.37;;
5690;SDS011;2870;42.680;23.364;2023-07-20T08:16:53;13.00;;;5.80;;
5690;SDS011;2870;42.680;23.364;2023-07-20T08:19:19;26.50;;;5.00;;
5690;SDS011;2870;42.680;23.364;2023-07-20T08:21:46;18.27;;;5.00;;
5690;SDS011;2870;42.680;23.364;2023-07-20T08:24:14;11.83;;;4.83;;
5690;SDS011;2870;42.680;23.364;2023-07-20T08:26:41;16.53;;;5.80;;
5690;SDS011;2870;42.680;23.364;2023-07-20T08:29:08;16.17;;;4.70;;
5690;SDS011;2870;42.680;23.364;2023-07-20T08:31:35;16.40;;;5.60;;
5690;SDS011;2870;42.680;23.364;2023-07-20T08:34:01;22.30;;;4.37;;
5690;SDS011;2870;42.680;23.364;2023-07-20T08:36:28;15.43;;;4.57;;
5690;SDS011;2870;42.680;23.364;2023-07-20T08:38:56;15.93;;;4.80;;
5690;SDS011;2870;42.680;23.364;2023-07-20T08:41:24;12.70;;;3.80;;
5690;SDS011;2870;42.680;23.364;2023-07-20T08:43:51;20.50;;;4.53;;
5690;SDS011;2870;42.680;23.364;2023-07-20T08:46:23;20.30;;;4.23;;
5690;SDS011;2870;42.680;23.364;2023-07-20T08:48:52;17.10;;;3.57;;
5690;SDS011;2870;42.680;23.364;2023-07-20T08:51:21;10.30;;;3.90;;
5690;SDS011;2870;42.680;23.364;2023-07-20T08:53:48;17.97;;;4.10;;
5690;SDS011;2870;42.680;23.364;2023-07-20T08:56:18;25.60;;;4.87;;
5690;SDS011;2870;42.680;23.364;2023-07-20T08:58:48;21.40;;;3.53;;
5690;SDS011;2870;42.680;23.364;2023-07-20T09:01:15;12.50;;;3.70;;
5690;SDS011;2870;42.680;23.364;2023-07-20T09:03:44;22.40;;;4.20;;
5690;SDS011;2870;42.680;23.364;2023-07-20T09:06:12;10.63;;;3.47;;
5690;SDS011;2870;42.680;23.364;2023-07-20T09:08:39;9.97;;;3.63;;
5690;SDS011;2870;42.680;23.364;2023-07-20T09:11:06;12.20;;;3.93;;
5690;SDS011;2870;42.680;23.364;2023-07-20T09:13:34;12.70;;;3.40;;
5690;SDS011;2870;42.680;23.364;2023-07-20T09:16:02;12.33;;;3.73;;
5690;SDS011;2870;42.680;23.364;2023-07-20T09:18:30;6.20;;;3.13;;
5690;SDS011;2870;42.680;23.364;2023-07-20T09:21:00;14.00;;;4.90;;
5690;SDS011;2870;42.680;23.364;2023-07-20T09:23:31;11.27;;;4.30;;
5690;SDS011;2870;42.680;23.364;2023-07-20T09:25:59;16.00;;;4.13;;
5690;SDS011;2870;42.680;23.364;2023-07-20T09:28:26;19.17;;;4.00;;
5690;SDS011;2870;42.680;23.364;2023-07-20T09:30:54;14.80;;;3.40;;
5690;SDS011;2870;42.680;23.364;2023-07-20T09:33:23;11.80;;;3.47;;
5690;SDS011;2870;42.680;23.364;2023-07-20T09:35:51;9.23;;;3.23;;
5690;SDS011;2870;42.680;23.364;2023-07-20T09:38:18;18.23;;;4.00;;
5690;SDS011;2870;42.680;23.364;2023-07-20T09:40:45;14.00;;;3.80;;
5690;SDS011;2870;42.680;23.364;2023-07-20T09:43:12;19.23;;;3.53;;
5690;SDS011;2870;42.680;23.364;2023-07-20T09:45:40;17.80;;;5.10;;
5690;SDS011;2870;42.680;23.364;2023-07-20T09:48:08;9.90;;;3.57;;
5690;SDS011;2870;42.680;23.364;2023-07-20T09:50:40;9.50;;;3.27;;
5690;SDS011;2870;42.680;23.364;2023-07-20T09:53:09;13.53;;;3.73;;
5690;SDS011;2870;42.680;23.364;2023-07-20T09:55:39;10.43;;;4.00;;
5690;SDS011;2870;42.680;23.364;2023-07-20T09:58:06;14.40;;;3.50;;
5690;SDS011;2870;42.680;23.364;2023-07-20T10:00:35;19.67;;;3.57;;
5690;SDS011;2870;42.680;23.364;2023-07-20T10:03:03;19.53;;;3.60;;
5690;SDS011;2870;42.680;23.364;2023-07-20T10:05:31;11.30;;;3.60;;
5690;SDS011;2870;42.680;23.364;2023-07-20T10:08:02;26.83;;;3.20;;
5690;SDS011;2870;42.680;23.364;2023-07-20T10:10:31;9.93;;;4.03;;
5690;SDS011;2870;42.680;23.364;2023-07-20T10:13:00;10.27;;;3.00;;
5690;SDS011;2870;42.680;23.364;2023-07-20T10:15:28;20.60;;;3.70;;
5690;SDS011;2870;42.680;23.364;2023-07-20T10:18:02;19.90;;;3.73;;
5690;SDS011;2870;42.680;23.364;2023-07-20T10:20:35;16.33;;;4.90;;
5690;SDS011;2870;42.680;23.364;2023-07-20T10:23:06;29.97;;;5.07;;
5690;SDS011;2870;42.680;23.364;2023-07-20T10:25:34;12.37;;;3.83;;
5690;SDS011;2870;42.680;23.364;2023-07-20T10:28:03;18.27;;;3.60;;
5690;SDS011;2870;42.680;23.364;2023-07-20T10:30:31;15.33;;;3.47;;
5690;SDS011;2870;42.680;23.364;2023-07-20T10:32:59;22.03;;;3.90;;
5690;SDS011;2870;42.680;23.364;2023-07-20T10:35:28;15.50;;;3.50;;
5690;SDS011;2870;42.680;23.364;2023-07-20T10:37:55;11.60;;;3.57;;
5690;SDS011;2870;42.680;23.364;2023-07-20T10:40:33;11.27;;;3.80;;
5690;SDS011;2870;42.680;23.364;2023-07-20T10:43:04;21.33;;;3.73;;
5690;SDS011;2870;42.680;23.364;2023-07-20T10:45:33;10.27;;;4.07;;
5690;SDS011;2870;42.680;23.364;2023-07-20T10:48:04;9.27;;;3.40;;
5690;SDS011;2870;42.680;23.364;2023-07-20T10:50:32;21.23;;;3.60;;
5690;SDS011;2870;42.680;23.364;2023-07-20T10:53:09;26.10;;;4.53;;
5690;SDS011;2870;42.680;23.364;2023-07-20T10:55:39;7.40;;;3.40;;
5690;SDS011;2870;42.680;23.364;2023-07-20T10:58:07;12.50;;;5.13;;
5690;SDS011;2870;42.680;23.364;2023-07-20T11:00:35;21.53;;;6.33;;
5690;SDS011;2870;42.680;23.364;2023-07-20T11:03:02;17.63;;;4.10;;
5690;SDS011;2870;42.680;23.364;2023-07-20T11:05:32;7.83;;;3.50;;
5690;SDS011;2870;42.680;23.364;2023-07-20T11:08:00;14.43;;;3.60;;
5690;SDS011;2870;42.680;23.364;2023-07-20T11:10:30;10.23;;;3.87;;
5690;SDS011;2870;42.680;23.364;2023-07-20T11:13:17;11.20;;;3.77;;
5690;SDS011;2870;42.680;23.364;2023-07-20T11:15:46;11.90;;;3.77;;
5690;SDS011;2870;42.680;23.364;2023-07-20T11:18:14;10.03;;;4.30;;
5690;SDS011;2870;42.680;23.364;2023-07-20T11:20:41;8.33;;;3.97;;
5690;SDS011;2870;42.680;23.364;2023-07-20T11:23:08;10.43;;;3.60;;
5690;SDS011;2870;42.680;23.364;2023-07-20T11:25:38;9.60;;;3.80;;
5690;SDS011;2870;42.680;23.364;2023-07-20T11:28:09;8.10;;;3.30;;
5690;SDS011;2870;42.680;23.364;2023-07-20T11:30:38;9.97;;;3.97;;
5690;SDS011;2870;42.680;23.364;2023-07-20T11:33:05;14.43;;;3.33;;
5690;SDS011;2870;42.680;23.364;2023-07-20T11:35:35;18.57;;;3.67;;
5690;SDS011;2870;42.680;23.364;2023-07-20T11:38:02;11.07;;;4.40;;
5690;SDS011;2870;42.680;23.364;2023-07-20T11:40:32;13.37;;;3.87;;
5690;SDS011;2870;42.680;23.364;2023-07-20T11:42:59;8.23;;;3.70;;
5690;SDS011;2870;42.680;23.364;2023-07-20T11:45:26;17.40;;;4.70;;
5690;SDS011;2870;42.680;23.364;2023-07-20T11:47:59;11.30;;;4.50;;
5690;SDS011;2870;42.680;23.364;2023-07-20T11:50:26;12.47;;;4.60;;
5690;SDS011;2870;42.680;23.364;2023-07-20T11:52:53;13.93;;;4.30;;
5690;SDS011;2870;42.680;23.364;2023-07-20T11:55:20;22.60;;;5.13;;
5690;SDS011;2870;42.680;23.364;2023-07-20T11:58:03;13.57;;;4.40;;
5690;SDS011;2870;42.680;23.364;2023-07-20T12:00:31;8.40;;;3.93;;
5690;SDS011;2870;42.680;23.364;2023-07-20T12:03:00;10.20;;;4.37;;
5690;SDS011;2870;42.680;23.364;2023-07-20T12:05:27;16.07;;;4.10;;
5690;SDS011;2870;42.680;23.364;2023-07-20T12:07:54;13.23;;;4.30;;
5690;SDS011;2870;42.680;23.364;2023-07-20T12:10:24;15.60;;;4.47;;
5690;SDS011;2870;42.680;23.364;2023-07-20T12:12:53;14.40;;;4.87;;
5690;SDS011;2870;42.680;23.364;2023-07-20T12:15:21;9.10;;;4.37;;
5690;SDS011;2870;42.680;23.364;2023-07-20T12:17:50;12.77;;;4.60;;
5690;SDS011;2870;42.680;23.364;2023-07-20T12:20:28;8.20;;;4.10;;
5690;SDS011;2870;42.680;23.364;2023-07-20T12:22:57;8.73;;;4.00;;
5690;SDS011;2870;42.680;23.364;2023-07-20T12:25:32;14.33;;;5.30;;
5690;SDS011;2870;42.680;23.364;2023-07-20T12:28:00;13.40;;;3.90;;
5690;SDS011;2870;42.680;23.364;2023-07-20T12:30:30;11.50;;;4.00;;
5690;SDS011;2870;42.680;23.364;2023-07-20T12:32:57;8.60;;;3.40;;
5690;SDS011;2870;42.680;23.364;2023-07-20T12:35:24;14.07;;;4.33;;
5690;SDS011;2870;42.680;23.364;2023-07-20T12:37:52;11.13;;;4.30;;
5690;SDS011;2870;42.680;23.364;2023-07-20T12:40:19;11.80;;;3.70;;
5690;SDS011;2870;42.680;23.364;2023-07-20T12:42:46;9.20;;;3.17;;
5690;SDS011;2870;42.680;23.364;2023-07-20T12:45:12;20.17;;;3.67;;
5690;SDS011;2870;42.680;23.364;2023-07-20T12:47:39;13.50;;;4.10;;
5690;SDS011;2870;42.680;23.364;2023-07-20T12:50:08;12.70;;;4.23;;
5690;SDS011;2870;42.680;23.364;2023-07-20T12:52:35;12.63;;;3.47;;
5690;SDS011;2870;42.680;23.364;2023-07-20T12:55:05;9.90;;;3.37;;
5690;SDS011;2870;42.680;23.364;2023-07-20T12:57:33;8.93;;;3.57;;
5690;SDS011;2870;42.680;23.364;2023-07-20T13:00:00;15.17;;;3.00;;
5690;SDS011;2870;42.680;23.364;2023-07-20T13:02:29;11.63;;;3.43;;
5690;SDS011;2870;42.680;23.364;2023-07-20T13:04:56;17.13;;;4.10;;
5690;SDS011;2870;42.680;23.364;2023-07-20T13:07:29;9.27;;;3.27;;
5690;SDS011;2870;42.680;23.364;2023-07-20T13:09:57;8.50;;;3.33;;
5690;SDS011;2870;42.680;23.364;2023-07-20T13:12:26;14.60;;;3.87;;
5690;SDS011;2870;42.680;23.364;2023-07-20T13:14:54;12.17;;;4.20;;
5690;SDS011;2870;42.680;23.364;2023-07-20T13:17:21;11.00;;;4.17;;
5690;SDS011;2870;42.680;23.364;2023-07-20T13:19:47;15.47;;;3.40;;
5690;SDS011;2870;42.680;23.364;2023-07-20T13:22:14;16.13;;;3.60;;
5690;SDS011;2870;42.680;23.364;2023-07-20T13:24:41;18.47;;;3.47;;
5690;SDS011;2870;42.680;23.364;2023-07-20T13:27:10;15.70;;;3.73;;
5690;SDS011;2870;42.680;23.364;2023-07-20T13:29:38;7.70;;;2.83;;
5690;SDS011;2870;42.680;23.364;2023-07-20T13:32:06;13.60;;;3.43;;
5690;SDS011;2870;42.680;23.364;2023-07-20T13:34:34;16.53;;;4.00;;
5690;SDS011;2870;42.680;23.364;2023-07-20T13:37:01;9.80;;;3.23;;
5690;SDS011;2870;42.680;23.364;2023-07-20T13:39:28;14.30;;;3.80;;
5690;SDS011;2870;42.680;23.364;2023-07-20T13:41:55;14.40;;;3.20;;
5690;SDS011;2870;42.680;23.364;2023-07-20T13:44:22;15.67;;;3.20;;
5690;SDS011;2870;42.680;23.364;2023-07-20T13:46:50;10.20;;;2.87;;
5690;SDS011;2870;42.680;23.364;2023-07-20T13:49:17;14.73;;;3.10;;
5690;SDS011;2870;42.680;23.364;2023-07-20T13:51:44;12.63;;;3.03;;
5690;SDS011;2870;42.680;23.364;2023-07-20T13:54:10;9.50;;;3.33;;
5690;SDS011;2870;42.680;23.364;2023-07-20T13:56:37;10.03;;;2.97;;
5690;SDS011;2870;42.680;23.364;2023-07-20T13:59:04;10.30;;;3.77;;
5690;SDS011;2870;42.680;23.364;2023-07-20T14:01:31;14.33;;;3.20;;
5690;SDS011;2870;42.680;23.364;2023-07-20T14:04:01;15.13;;;3.10;;
5690;SDS011;2870;42.680;23.364;2023-07-20T14:06:29;16.50;;;3.20;;
5690;SDS011;2870;42.680;23.364;2023-07-20T14:08:57;12.33;;;2.87;;
5690;SDS011;2870;42.680;23.364;2023-07-20T14:11:23;12.60;;;3.07;;
5690;SDS011;2870;42.680;23.364;2023-07-20T14:13:51;13.00;;;2.63;;
5690;SDS011;2870;42.680;23.364;2023-07-20T14:16:18;15.83;;;3.40;;
5690;SDS011;2870;42.680;23.364;2023-07-20T14:18:45;7.13;;;2.83;;
5690;SDS011;2870;42.680;23.364;2023-07-20T14:21:15;20.90;;;3.50;;
5690;SDS011;2870;42.680;23.364;2023-07-20T14:23:44;21.60;;;4.43;;
5690;SDS011;2870;42.680;23.364;2023-07-20T14:26:11;12.13;;;3.50;;
5690;SDS011;2870;42.680;23.364;2023-07-20T14:28:38;14.70;;;3.77;;
5690;SDS011;2870;42.680;23.364;2023-07-20T14:31:05;14.53;;;4.10;;
5690;SDS011;2870;42.680;23.364;2023-07-20T14:33:32;11.10;;;3.37;;
5690;SDS011;2870;42.680;23.364;2023-07-20T14:35:59;12.43;;;3.10;;
5690;SDS011;2870;42.680;23.364;2023-07-20T14:38:28;13.47;;;3.00;;
5690;SDS011;2870;42.680;23.364;2023-07-20T14:40:54;13.83;;;3.50;;
5690;SDS011;2870;42.680;23.364;2023-07-20T14:43:21;13.27;;;3.20;;
5690;SDS011;2870;42.680;23.364;2023-07-20T14:45:48;10.77;;;3.10;;
5690;SDS011;2870;42.680;23.364;2023-07-20T14:48:15;11.30;;;3.80;;
5690;SDS011;2870;42.680;23.364;2023-07-20T14:50:41;9.63;;;3.53;;
5690;SDS011;2870;42.680;23.364;2023-07-20T14:53:10;17.93;;;3.43;;
5690;SDS011;2870;42.680;23.364;2023-07-20T14:55:39;18.07;;;3.77;;
5690;SDS011;2870;42.680;23.364;2023-07-20T14:58:08;11.30;;;3.30;;
5690;SDS011;2870;42.680;23.364;2023-07-20T15:00:35;18.77;;;3.50;;